Buxtehude — V2BY8 — position and weather

sailwx.info

Track history (hours):
 
Tides and Currents Weather Stations Pressure Air Temp Water Temp Dewpoint Dewpoint Depression Visibility Wind Speed Wind Dir Waves Ship Positions

Buxtehude

Last reported at 2016-May-29 07:33 UTC. Time now 2016-May-29 07:47 UTC.
Position N 53°31' W 003°15'.

Length 134 m; draft 6.5 m.

Type: Ship (hazmat cat A). MMSI: 304962000.

Date/timePositionNaut miles runAvg speedWind from/ knotsBaromVisibWave heightAir tempDewpointWater temp
2016-May-29 07:33N 53°31' W 003°15'9 9.2
2016-May-29 06:33N 53°27' W 003°01'0 0.4
2016-May-29 05:33N 53°27' W 003°01'0 0.5
2016-May-29 04:33N 53°28' W 003°02'0 0.0
2016-May-29 03:33N 53°28' W 003°02'0 0.0
2016-May-29 02:33N 53°28' W 003°02'0 0.0
2016-May-29 01:33N 53°28' W 003°02'0 0.0
2016-May-29 00:33N 53°28' W 003°02'0 0.0
2016-May-28 23:33N 53°28' W 003°02'0 0.0
2016-May-28 22:33N 53°28' W 003°02'0 0.0
2016-May-28 21:33N 53°28' W 003°02'0 0.0
2016-May-28 20:33N 53°28' W 003°02'0 0.0
2016-May-28 19:33N 53°28' W 003°02'0 0.0
2016-May-28 18:33N 53°28' W 003°02'0 0.0
2016-May-28 17:33N 53°28' W 003°02'0 0.0
2016-May-28 16:33N 53°28' W 003°02'0 0.0
2016-May-28 15:33N 53°28' W 003°02'0 0.0
2016-May-28 14:33N 53°28' W 003°02'0 0.0
2016-May-28 13:33N 53°28' W 003°02'0 0.0
2016-May-28 12:33N 53°28' W 003°02'0 0.0
2016-May-28 11:33N 53°28' W 003°02'0 0.0
2016-May-28 10:33N 53°28' W 003°02'0 0.0
2016-May-28 09:33N 53°28' W 003°02'0 0.0
2016-May-28 08:33N 53°28' W 003°02'0 0.0
2016-May-28 07:33N 53°28' W 003°02'1 0.8
2016-May-28 06:33N 53°27' W 003°01'0 0.3
2016-May-28 05:33N 53°27' W 003°01'8 7.8
2016-May-28 04:33N 53°31' W 003°12'4 4.4
2016-May-28 03:33N 53°31' W 003°19'1313.6
2016-May-28 02:33N 53°30' W 003°42'  
2016-May-25 15:32N 39°10' W 009°51'1616.7
2016-May-25 14:33N 38°53' W 009°50'1616.2
2016-May-25 13:33N 38°37' W 009°47'1615.6
2016-May-25 12:33N 38°29' W 009°31'1615.7
2016-May-25 11:33N 38°20' W 009°14'1413.7
2016-May-25 10:33N 38°27' W 008°58'6 5.8
2016-May-25 09:32N 38°31' W 008°52'0 0.0
2016-May-25 00:28N 38°31' W 008°52'0 0.0
2016-May-24 22:24N 38°31' W 008°52'0 0.0
2016-May-24 21:06N 38°31' W 008°52'0 0.0
2016-May-24 20:11N 38°31' W 008°52'0 0.0
2016-May-24 19:32N 38°31' W 008°52'0 0.0
2016-May-24 18:31N 38°31' W 008°52'0 0.0
2016-May-24 17:28N 38°31' W 008°52'0 0.0
2016-May-24 16:15N 38°31' W 008°52'1 1.2
2016-May-24 15:32N 38°31' W 008°54'1 0.5
2016-May-24 14:25N 38°31' W 008°54'0 0.0
2016-May-24 13:31N 38°31' W 008°54'0 0.0
2016-May-24 12:12N 38°31' W 008°54'0 0.0
2016-May-24 11:27N 38°31' W 008°54'0 0.0
2016-May-24 10:33N 38°31' W 008°54'0 0.0
2016-May-24 09:23N 38°31' W 008°54'0 0.0
2016-May-24 08:32N 38°31' W 008°54'0 0.0
2016-May-24 07:25N 38°31' W 008°54'0 0.0
2016-May-24 06:22N 38°31' W 008°54'0 0.1
2016-May-24 05:31N 38°31' W 008°54'0 0.0
2016-May-24 04:33N 38°31' W 008°54'0 0.0
2016-May-24 03:33N 38°31' W 008°54'4 4.5
2016-May-24 02:34N 38°27' W 008°58'1716.3
2016-May-24 01:33N 38°11' W 008°58'1616.5
2016-May-24 00:33N 37°55' W 008°52'1 1.2
2016-May-23 23:31N 37°56' W 008°51'0 0.0
2016-May-23 22:33N 37°56' W 008°51'0 0.0
2016-May-23 21:33N 37°56' W 008°51'0 0.0
2016-May-23 20:32N 37°56' W 008°51'0 0.0
2016-May-23 19:32N 37°56' W 008°51'0 0.0
2016-May-23 18:31N 37°56' W 008°51'0 0.0
2016-May-23 17:31N 37°56' W 008°51'0 0.0
2016-May-23 16:31N 37°56' W 008°51'0 0.0
2016-May-23 15:33N 37°56' W 008°51'0 0.0
2016-May-23 14:33N 37°56' W 008°51'0 0.0
2016-May-23 13:32N 37°56' W 008°51'0 0.2
2016-May-23 12:33N 37°56' W 008°51'1 1.3
2016-May-23 11:32N 37°55' W 008°51'0 0.0
2016-May-23 10:32N 37°55' W 008°51'6 6.3
2016-May-23 09:34N 37°59' W 008°57'1413.7
2016-May-23 08:33N 38°09' W 009°08'1413.9
2016-May-23 07:33N 38°19' W 009°20'1413.8
2016-May-23 06:33N 38°30' W 009°32'1413.6
2016-May-23 05:33N 38°40' W 009°43'1414.0
2016-May-23 04:33N 38°54' W 009°44'1413.9
2016-May-23 03:33N 39°08' W 009°45'  
2016-May-20 10:16N 48°56' W 005°42'1417.3
2016-May-20 09:28N 49°03' W 005°25'2217.4
2016-May-20 08:11N 49°15' W 004°55'1116.9
2016-May-20 07:32N 49°20' W 004°41'1716.4
2016-May-20 06:31N 49°29' W 004°19'1715.5
2016-May-20 05:26N 49°37' W 003°57'1315.2
2016-May-20 04:33N 49°44' W 003°38'1515.4
2016-May-20 03:34N 49°51' W 003°18'1616.4
2016-May-20 02:33N 49°59' W 002°56'9117.9
2016-May-19 21:29N 50°24' W 000°39'1415.1
2016-May-19 20:34N 50°27' W 000°18'1514.6
2016-May-19 19:33N 50°31' E 000°04'1514.6
2016-May-19 18:32N 50°36' E 000°27'3316.6
2016-May-19 16:33N 50°55' E 001°09'1817.6
2016-May-19 15:34N 51°06' E 001°31'1515.4
2016-May-19 14:34N 51°21' E 001°35'1514.6
2016-May-19 13:34N 51°29' E 001°16'1717.1
2016-May-19 12:34N 51°29' E 000°48'1514.7
2016-May-19 11:33N 51°27' E 000°25'3 2.9
2016-May-19 10:33N 51°27' E 000°20'0 0.4
2016-May-19 09:33N 51°28' E 000°20'0 0.0
2016-May-19 08:33N 51°28' E 000°20'0 0.0
2016-May-19 07:33N 51°28' E 000°20'  
Track history (hours):
 
Tides and Currents Weather Stations Pressure Air Temp Water Temp Dewpoint Dewpoint Depression Visibility Wind Speed Wind Dir Waves Ship Positions

Buxtehude

Last reported at 2016-May-29 07:33 UTC. Time now 2016-May-29 07:47 UTC.
Position N 53°31' W 003°15'.

Length 134 m; draft 6.5 m.

Type: Ship (hazmat cat A). MMSI: 304962000.

Date/timePositionNaut miles runAvg speedWind from/ knotsBaromVisibWave heightAir tempDewpointWater temp
2016-May-29 07:33N 53°31' W 003°15'9 9.2
2016-May-29 06:33N 53°27' W 003°01'0 0.4
2016-May-29 05:33N 53°27' W 003°01'0 0.5
2016-May-29 04:33N 53°28' W 003°02'0 0.0
2016-May-29 03:33N 53°28' W 003°02'0 0.0
2016-May-29 02:33N 53°28' W 003°02'0 0.0
2016-May-29 01:33N 53°28' W 003°02'0 0.0
2016-May-29 00:33N 53°28' W 003°02'0 0.0
2016-May-28 23:33N 53°28' W 003°02'0 0.0
2016-May-28 22:33N 53°28' W 003°02'0 0.0
2016-May-28 21:33N 53°28' W 003°02'0 0.0
2016-May-28 20:33N 53°28' W 003°02'0 0.0
2016-May-28 19:33N 53°28' W 003°02'0 0.0
2016-May-28 18:33N 53°28' W 003°02'0 0.0
2016-May-28 17:33N 53°28' W 003°02'0 0.0
2016-May-28 16:33N 53°28' W 003°02'0 0.0
2016-May-28 15:33N 53°28' W 003°02'0 0.0
2016-May-28 14:33N 53°28' W 003°02'0 0.0
2016-May-28 13:33N 53°28' W 003°02'0 0.0
2016-May-28 12:33N 53°28' W 003°02'0 0.0
2016-May-28 11:33N 53°28' W 003°02'0 0.0
2016-May-28 10:33N 53°28' W 003°02'0 0.0
2016-May-28 09:33N 53°28' W 003°02'0 0.0
2016-May-28 08:33N 53°28' W 003°02'0 0.0
2016-May-28 07:33N 53°28' W 003°02'1 0.8
2016-May-28 06:33N 53°27' W 003°01'0 0.3
2016-May-28 05:33N 53°27' W 003°01'8 7.8
2016-May-28 04:33N 53°31' W 003°12'4 4.4
2016-May-28 03:33N 53°31' W 003°19'1313.6
2016-May-28 02:33N 53°30' W 003°42'  
2016-May-25 15:32N 39°10' W 009°51'1616.7
2016-May-25 14:33N 38°53' W 009°50'1616.2
2016-May-25 13:33N 38°37' W 009°47'1615.6
2016-May-25 12:33N 38°29' W 009°31'1615.7
2016-May-25 11:33N 38°20' W 009°14'1413.7
2016-May-25 10:33N 38°27' W 008°58'6 5.8
2016-May-25 09:32N 38°31' W 008°52'0 0.0
2016-May-25 00:28N 38°31' W 008°52'0 0.0
2016-May-24 22:24N 38°31' W 008°52'0 0.0
2016-May-24 21:06N 38°31' W 008°52'0 0.0
2016-May-24 20:11N 38°31' W 008°52'0 0.0
2016-May-24 19:32N 38°31' W 008°52'0 0.0
2016-May-24 18:31N 38°31' W 008°52'0 0.0
2016-May-24 17:28N 38°31' W 008°52'0 0.0
2016-May-24 16:15N 38°31' W 008°52'1 1.2
2016-May-24 15:32N 38°31' W 008°54'1 0.5
2016-May-24 14:25N 38°31' W 008°54'0 0.0
2016-May-24 13:31N 38°31' W 008°54'0 0.0
2016-May-24 12:12N 38°31' W 008°54'0 0.0
2016-May-24 11:27N 38°31' W 008°54'0 0.0
2016-May-24 10:33N 38°31' W 008°54'0 0.0
2016-May-24 09:23N 38°31' W 008°54'0 0.0
2016-May-24 08:32N 38°31' W 008°54'0 0.0
2016-May-24 07:25N 38°31' W 008°54'0 0.0
2016-May-24 06:22N 38°31' W 008°54'0 0.1
2016-May-24 05:31N 38°31' W 008°54'0 0.0
2016-May-24 04:33N 38°31' W 008°54'0 0.0
2016-May-24 03:33N 38°31' W 008°54'4 4.5
2016-May-24 02:34N 38°27' W 008°58'1716.3
2016-May-24 01:33N 38°11' W 008°58'1616.5
2016-May-24 00:33N 37°55' W 008°52'1 1.2
2016-May-23 23:31N 37°56' W 008°51'0 0.0
2016-May-23 22:33N 37°56' W 008°51'0 0.0
2016-May-23 21:33N 37°56' W 008°51'0 0.0
2016-May-23 20:32N 37°56' W 008°51'0 0.0
2016-May-23 19:32N 37°56' W 008°51'0 0.0
2016-May-23 18:31N 37°56' W 008°51'0 0.0
2016-May-23 17:31N 37°56' W 008°51'0 0.0
2016-May-23 16:31N 37°56' W 008°51'0 0.0
2016-May-23 15:33N 37°56' W 008°51'0 0.0
2016-May-23 14:33N 37°56' W 008°51'0 0.0
2016-May-23 13:32N 37°56' W 008°51'0 0.2
2016-May-23 12:33N 37°56' W 008°51'1 1.3
2016-May-23 11:32N 37°55' W 008°51'0 0.0
2016-May-23 10:32N 37°55' W 008°51'6 6.3
2016-May-23 09:34N 37°59' W 008°57'1413.7
2016-May-23 08:33N 38°09' W 009°08'1413.9
2016-May-23 07:33N 38°19' W 009°20'1413.8
2016-May-23 06:33N 38°30' W 009°32'1413.6
2016-May-23 05:33N 38°40' W 009°43'1414.0
2016-May-23 04:33N 38°54' W 009°44'1413.9
2016-May-23 03:33N 39°08' W 009°45'  
2016-May-20 10:16N 48°56' W 005°42'1417.3
2016-May-20 09:28N 49°03' W 005°25'2217.4
2016-May-20 08:11N 49°15' W 004°55'1116.9
2016-May-20 07:32N 49°20' W 004°41'1716.4
2016-May-20 06:31N 49°29' W 004°19'1715.5
2016-May-20 05:26N 49°37' W 003°57'1315.2
2016-May-20 04:33N 49°44' W 003°38'1515.4
2016-May-20 03:34N 49°51' W 003°18'1616.4
2016-May-20 02:33N 49°59' W 002°56'9117.9
2016-May-19 21:29N 50°24' W 000°39'1415.1
2016-May-19 20:34N 50°27' W 000°18'1514.6
2016-May-19 19:33N 50°31' E 000°04'1514.6
2016-May-19 18:32N 50°36' E 000°27'3316.6
2016-May-19 16:33N 50°55' E 001°09'1817.6
2016-May-19 15:34N 51°06' E 001°31'1515.4
2016-May-19 14:34N 51°21' E 001°35'1514.6
2016-May-19 13:34N 51°29' E 001°16'1717.1
2016-May-19 12:34N 51°29' E 000°48'1514.7
2016-May-19 11:33N 51°27' E 000°25'3 2.9
2016-May-19 10:33N 51°27' E 000°20'0 0.4
2016-May-19 09:33N 51°28' E 000°20'0 0.0
2016-May-19 08:33N 51°28' E 000°20'0 0.0
2016-May-19 07:33N 51°28' E 000°20'  

Dump ship's entire track history